createdAt,value
2022-07-26T00:00:46.166Z,1.48
2022-07-26T00:03:13.161Z,1.45
2022-07-26T00:05:40.220Z,1.63
2022-07-26T00:08:10.821Z,1.58
2022-07-26T00:10:45.451Z,1.80
2022-07-26T00:13:12.872Z,1.90
2022-07-26T00:15:40.052Z,2.03
2022-07-26T00:18:11.925Z,2.20
2022-07-26T00:20:40.102Z,2.47
2022-07-26T00:23:08.946Z,2.37
2022-07-26T00:25:36.107Z,2.28
2022-07-26T00:28:03.690Z,1.70
2022-07-26T00:30:30.970Z,1.80
2022-07-26T00:32:58.053Z,1.75
2022-07-26T00:35:25.353Z,2.13
2022-07-26T00:37:52.881Z,2.78
2022-07-26T00:40:19.887Z,1.88
2022-07-26T00:42:46.892Z,2.20
2022-07-26T00:45:15.266Z,2.22
2022-07-26T00:47:42.935Z,2.05
2022-07-26T00:50:14.266Z,1.90
2022-07-26T00:52:47.167Z,1.98
2022-07-26T00:55:16.247Z,2.03
2022-07-26T00:57:44.504Z,1.90
2022-07-26T01:00:17.469Z,1.80
2022-07-26T01:02:45.266Z,1.88
2022-07-26T01:05:12.437Z,1.85
2022-07-26T01:07:40.167Z,1.88
2022-07-26T01:10:12.572Z,2.25
2022-07-26T01:12:43.337Z,1.70
2022-07-26T01:15:13.170Z,1.88
2022-07-26T01:17:41.022Z,1.60
2022-07-26T01:20:10.748Z,1.60
2022-07-26T01:22:38.360Z,2.03
2022-07-26T01:25:06.574Z,1.67
2022-07-26T01:27:39.575Z,1.70
2022-07-26T01:30:10.575Z,1.55
2022-07-26T01:32:38.046Z,2.03
2022-07-26T01:35:07.687Z,1.92
2022-07-26T01:37:34.708Z,1.60
2022-07-26T01:40:01.886Z,1.77
2022-07-26T01:42:29.033Z,1.77
2022-07-26T01:44:55.995Z,1.80
2022-07-26T01:47:23.020Z,1.98
2022-07-26T01:49:50.293Z,2.25
2022-07-26T01:52:18.390Z,1.98
2022-07-26T01:54:45.557Z,1.77
2022-07-26T01:57:12.595Z,1.90
2022-07-26T01:59:39.502Z,2.15
2022-07-26T02:02:06.572Z,2.17
2022-07-26T02:04:52.576Z,2.63
2022-07-26T02:07:19.671Z,2.75
2022-07-26T02:09:46.681Z,2.75
2022-07-26T02:12:15.218Z,2.83
2022-07-26T02:14:42.221Z,3.20
2022-07-26T02:17:09.430Z,3.17
2022-07-26T02:19:36.440Z,4.88
2022-07-26T02:22:03.976Z,4.85
2022-07-26T02:24:31.101Z,3.58
2022-07-26T02:26:59.703Z,3.55
2022-07-26T02:29:27.765Z,2.85
2022-07-26T02:31:56.094Z,2.88
2022-07-26T02:34:23.508Z,3.30
2022-07-26T02:36:50.877Z,3.25
2022-07-26T02:39:18.181Z,4.53
2022-07-26T02:41:45.572Z,3.80
2022-07-26T02:44:12.549Z,3.92
2022-07-26T02:46:39.646Z,3.67
2022-07-26T02:49:06.707Z,3.78
2022-07-26T02:51:33.848Z,3.50
2022-07-26T02:54:00.831Z,3.00
2022-07-26T02:56:27.811Z,3.95
2022-07-26T02:58:54.789Z,3.47
2022-07-26T03:01:22.410Z,3.60
2022-07-26T03:03:50.995Z,3.78
2022-07-26T03:06:19.736Z,3.97
2022-07-26T03:08:48.153Z,3.50
2022-07-26T03:11:15.521Z,3.65
2022-07-26T03:13:42.485Z,3.13
2022-07-26T03:16:09.597Z,3.88
2022-07-26T03:18:36.671Z,3.25
2022-07-26T03:21:03.962Z,3.38
2022-07-26T03:23:33.442Z,3.13
2022-07-26T03:26:04.478Z,2.30
2022-07-26T03:28:33.496Z,1.77
2022-07-26T03:31:01.373Z,2.08
2022-07-26T03:33:29.977Z,2.15
2022-07-26T03:35:57.244Z,1.52
2022-07-26T03:38:24.550Z,1.70
2022-07-26T03:40:51.618Z,1.70
2022-07-26T03:43:23.021Z,1.70
2022-07-26T03:45:54.654Z,1.60
2022-07-26T03:48:22.106Z,1.90
2022-07-26T03:50:49.688Z,1.63
2022-07-26T03:53:17.518Z,1.80
2022-07-26T03:56:03.439Z,1.85
2022-07-26T03:58:30.380Z,1.77
2022-07-26T04:00:57.332Z,1.98
2022-07-26T04:03:24.335Z,1.58
2022-07-26T04:05:52.716Z,2.05
2022-07-26T04:08:19.967Z,2.30
2022-07-26T04:10:51.103Z,2.08
2022-07-26T04:13:19.254Z,2.00
2022-07-26T04:15:47.104Z,5.10
2022-07-26T04:18:16.570Z,2.75
2022-07-26T04:20:43.864Z,2.50
2022-07-26T04:23:12.456Z,2.33
2022-07-26T04:25:41.708Z,1.98
2022-07-26T04:28:10.166Z,2.07
2022-07-26T04:30:38.463Z,1.80
2022-07-26T04:33:06.919Z,2.10
2022-07-26T04:35:34.875Z,1.55
2022-07-26T04:38:05.320Z,2.22
2022-07-26T04:40:40.461Z,1.65
2022-07-26T04:43:10.598Z,1.90
2022-07-26T04:45:46.577Z,1.70
2022-07-26T04:48:14.535Z,1.90
2022-07-26T04:50:43.528Z,2.08
2022-07-26T04:53:13.651Z,1.92
2022-07-26T04:58:09.358Z,1.73
2022-07-26T05:00:56.851Z,1.45
2022-07-26T05:03:25.368Z,1.50
2022-07-26T05:05:52.862Z,1.55
2022-07-26T05:08:20.176Z,1.80
2022-07-26T05:10:52.983Z,1.80
2022-07-26T05:13:23.120Z,1.58
2022-07-26T05:15:57.720Z,1.70
2022-07-26T05:18:24.683Z,1.50
2022-07-26T05:20:52.135Z,1.95
2022-07-26T05:23:20.412Z,1.60
2022-07-26T05:25:48.506Z,2.30
2022-07-26T05:28:15.470Z,2.13
2022-07-26T05:30:42.569Z,1.88
2022-07-26T05:33:09.531Z,2.22
2022-07-26T05:35:36.537Z,1.65
2022-07-26T05:38:03.546Z,2.20
2022-07-26T05:40:30.604Z,1.45
2022-07-26T05:42:57.617Z,1.92
2022-07-26T05:45:24.586Z,1.98
2022-07-26T05:47:53.197Z,1.95
2022-07-26T05:50:20.474Z,2.67
2022-07-26T05:52:47.512Z,2.63
2022-07-26T05:55:14.753Z,2.13
2022-07-26T05:57:42.044Z,1.77
2022-07-26T06:00:12.544Z,1.65
2022-07-26T06:02:41.084Z,2.10
2022-07-26T06:05:08.766Z,1.90
2022-07-26T06:07:35.830Z,2.22
2022-07-26T06:10:02.917Z,2.05
2022-07-26T06:12:30.009Z,1.85
2022-07-26T06:14:56.963Z,1.95
2022-07-26T06:17:24.111Z,1.88
2022-07-26T06:19:51.082Z,1.85
2022-07-26T06:22:18.069Z,2.03
2022-07-26T06:24:45.058Z,2.20
2022-07-26T06:27:12.363Z,2.28
2022-07-26T06:29:40.403Z,2.53
2022-07-26T06:32:07.571Z,2.25
2022-07-26T06:34:34.802Z,2.13
2022-07-26T06:37:01.848Z,2.00
2022-07-26T06:39:28.846Z,2.17
2022-07-26T06:41:55.819Z,2.08
2022-07-26T06:44:22.944Z,1.88
2022-07-26T06:46:50.251Z,2.20
2022-07-26T06:49:21.910Z,2.60
2022-07-26T06:51:49.589Z,2.28
2022-07-26T06:54:16.724Z,1.83
2022-07-26T06:56:43.743Z,2.28
2022-07-26T06:59:10.773Z,2.10
2022-07-26T07:01:51.519Z,2.22
2022-07-26T07:04:24.985Z,2.05
2022-07-26T07:06:52.102Z,2.17
2022-07-26T07:09:20.050Z,1.83
2022-07-26T07:11:52.287Z,1.60
2022-07-26T07:14:25.775Z,1.95
2022-07-26T07:16:53.141Z,1.70
2022-07-26T07:19:20.348Z,1.70
2022-07-26T07:21:47.360Z,1.70
2022-07-26T07:24:14.846Z,1.70
2022-07-26T07:26:42.901Z,1.65
2022-07-26T07:29:15.236Z,1.52
2022-07-26T07:31:48.908Z,1.73
2022-07-26T07:34:19.708Z,2.00
2022-07-26T07:39:17.443Z,1.50
2022-07-26T07:41:49.141Z,1.73
2022-07-26T07:44:16.281Z,2.42
2022-07-26T07:46:43.564Z,1.80
2022-07-26T07:49:11.481Z,1.63
2022-07-26T07:51:38.839Z,1.48
2022-07-26T07:54:06.308Z,1.73
2022-07-26T07:56:34.380Z,1.77
2022-07-26T07:59:01.578Z,1.42
2022-07-26T08:01:39.849Z,1.52
2022-07-26T08:04:09.241Z,1.60
2022-07-26T08:06:37.115Z,1.65
2022-07-26T08:09:06.416Z,1.65
2022-07-26T08:11:34.253Z,1.80
2022-07-26T08:14:02.121Z,1.77
2022-07-26T08:16:29.353Z,1.60
2022-07-26T08:18:57.714Z,1.60
2022-07-26T08:21:28.253Z,1.70
2022-07-26T08:23:57.365Z,1.55
2022-07-26T08:26:25.206Z,1.80
2022-07-26T08:29:00.076Z,1.50
2022-07-26T08:31:29.332Z,1.40
2022-07-26T08:33:57.096Z,1.95
2022-07-26T08:36:28.206Z,1.30
2022-07-26T08:38:58.978Z,1.10
2022-07-26T08:41:25.981Z,1.40
2022-07-26T08:43:53.923Z,1.13
2022-07-26T08:46:27.690Z,1.20
2022-07-26T08:48:58.205Z,1.30
2022-07-26T08:51:26.621Z,1.30
2022-07-26T08:54:05.364Z,1.70
2022-07-26T08:56:36.451Z,1.40
2022-07-26T08:59:19.983Z,1.35
2022-07-26T09:01:53.880Z,1.30
2022-07-26T09:04:33.448Z,1.50
2022-07-26T09:10:03.712Z,1.17
2022-07-26T09:12:32.516Z,1.83
2022-07-26T09:15:02.054Z,1.67
2022-07-26T09:17:45.899Z,1.13
2022-07-26T09:20:13.975Z,1.08
2022-07-26T09:23:13.656Z,1.40
2022-07-26T09:25:44.132Z,1.35
2022-07-26T09:28:27.291Z,1.30
2022-07-26T09:31:05.675Z,1.60
2022-07-26T09:33:46.664Z,1.17
2022-07-26T09:36:13.951Z,1.00
2022-07-26T09:38:47.165Z,0.93
2022-07-26T09:41:26.585Z,1.10
2022-07-26T09:43:54.988Z,1.30
2022-07-26T09:46:26.015Z,1.33
2022-07-26T09:49:11.635Z,1.02
2022-07-26T09:51:48.721Z,1.40
2022-07-26T09:54:29.248Z,1.55
2022-07-26T09:56:57.131Z,1.00
2022-07-26T09:59:27.033Z,1.30
2022-07-26T10:01:57.601Z,1.23
2022-07-26T10:04:25.917Z,1.30
2022-07-26T10:06:53.539Z,1.20
2022-07-26T10:09:25.415Z,1.25
2022-07-26T10:12:05.472Z,1.20
2022-07-26T10:14:51.379Z,1.23
2022-07-26T10:17:31.381Z,0.82
2022-07-26T10:20:16.834Z,1.10
2022-07-26T10:22:50.269Z,1.00
2022-07-26T10:25:20.413Z,0.80
2022-07-26T10:27:52.451Z,1.02
2022-07-26T10:30:19.379Z,1.45
2022-07-26T10:33:00.414Z,0.82
2022-07-26T10:35:36.707Z,1.63
2022-07-26T10:38:23.243Z,1.10
2022-07-26T10:41:04.138Z,1.10
2022-07-26T10:43:40.771Z,1.27
2022-07-26T10:46:20.285Z,1.38
2022-07-26T10:49:04.496Z,1.17
2022-07-26T10:51:39.139Z,1.35
2022-07-26T10:54:13.176Z,1.05
2022-07-26T10:56:40.889Z,1.33
2022-07-26T10:59:08.202Z,1.20
2022-07-26T11:01:38.729Z,1.27
2022-07-26T11:04:19.994Z,1.02
2022-07-26T11:06:47.767Z,1.58
2022-07-26T11:09:14.933Z,1.00
2022-07-26T11:11:46.434Z,1.40
2022-07-26T11:14:17.551Z,0.98
2022-07-26T11:16:48.175Z,1.10
2022-07-26T11:19:27.501Z,1.13
2022-07-26T11:21:58.572Z,1.20
2022-07-26T11:24:26.775Z,1.10
2022-07-26T11:26:54.182Z,1.15
2022-07-26T11:29:38.852Z,1.08
2022-07-26T11:32:25.383Z,1.40
2022-07-26T11:35:04.965Z,1.20
2022-07-26T11:37:32.100Z,1.08
2022-07-26T11:39:59.108Z,1.77
2022-07-26T11:42:26.146Z,1.27
2022-07-26T11:44:53.991Z,1.00
2022-07-26T11:47:25.447Z,1.20
2022-07-26T11:50:13.872Z,1.20
2022-07-26T11:52:41.930Z,1.02
2022-07-26T11:55:09.809Z,1.30
2022-07-26T11:57:37.168Z,1.00
2022-07-26T12:00:06.002Z,1.08
2022-07-26T12:02:39.583Z,1.05
2022-07-26T12:05:16.292Z,1.30
2022-07-26T12:07:56.229Z,1.00
2022-07-26T12:10:24.326Z,1.02
2022-07-26T12:13:14.490Z,1.13
2022-07-26T12:15:52.257Z,1.67
2022-07-26T12:18:37.690Z,1.00
2022-07-26T12:21:09.650Z,1.08
2022-07-26T12:23:45.618Z,1.35
2022-07-26T12:26:28.307Z,0.90
2022-07-26T12:28:57.310Z,0.93
2022-07-26T12:31:34.162Z,0.80
2022-07-26T12:34:01.468Z,1.00
2022-07-26T12:36:29.790Z,1.02
2022-07-26T12:39:01.094Z,1.10
2022-07-26T12:41:40.147Z,1.45
2022-07-26T12:44:11.518Z,1.35
2022-07-26T12:46:39.092Z,1.17
2022-07-26T12:49:06.341Z,1.30
2022-07-26T12:51:34.233Z,0.90
2022-07-26T12:54:01.378Z,0.93
2022-07-26T12:56:28.409Z,0.98
2022-07-26T12:59:01.019Z,1.17
2022-07-26T13:01:30.381Z,1.20
2022-07-26T13:03:57.510Z,1.17
2022-07-26T13:06:24.609Z,1.40
2022-07-26T13:08:51.624Z,0.90
2022-07-26T13:11:18.723Z,1.10
2022-07-26T13:13:45.796Z,1.30
2022-07-26T13:16:13.084Z,1.40
2022-07-26T13:18:40.479Z,1.00
2022-07-26T13:21:07.619Z,1.13
2022-07-26T13:23:35.717Z,1.60
2022-07-26T13:26:04.080Z,1.23
2022-07-26T13:28:31.577Z,1.30
2022-07-26T13:30:58.617Z,1.20
2022-07-26T13:33:25.857Z,1.13
2022-07-26T13:35:52.856Z,1.38
2022-07-26T13:38:20.253Z,1.00
2022-07-26T13:40:47.471Z,1.15
2022-07-26T13:43:15.123Z,1.35
2022-07-26T13:45:42.451Z,1.00
2022-07-26T13:48:09.657Z,1.02
2022-07-26T13:50:36.696Z,1.20
2022-07-26T13:53:03.929Z,0.85
2022-07-26T13:55:30.956Z,1.10
2022-07-26T13:57:58.551Z,1.05
2022-07-26T14:00:28.714Z,1.27
2022-07-26T14:02:58.707Z,1.20
2022-07-26T14:05:27.979Z,1.20
2022-07-26T14:07:55.273Z,0.77
2022-07-26T14:10:24.085Z,1.30
2022-07-26T14:12:52.421Z,1.17
2022-07-26T14:15:22.944Z,1.30
2022-07-26T14:17:53.950Z,1.38
2022-07-26T14:20:21.995Z,1.17
2022-07-26T14:22:53.651Z,1.05
2022-07-26T14:25:27.395Z,1.25
2022-07-26T14:27:55.616Z,1.02
2022-07-26T14:30:24.588Z,1.38
2022-07-26T14:32:52.288Z,1.40
2022-07-26T14:35:19.285Z,1.10
2022-07-26T14:37:46.865Z,1.25
2022-07-26T14:40:16.970Z,1.30
2022-07-26T14:42:47.445Z,1.50
2022-07-26T14:45:15.738Z,1.27
2022-07-26T14:47:43.189Z,1.00
2022-07-26T14:50:15.596Z,0.90
2022-07-26T14:52:47.842Z,1.13
2022-07-26T14:55:24.686Z,1.33
2022-07-26T14:57:52.663Z,1.23
2022-07-26T15:00:21.519Z,1.20
2022-07-26T15:02:49.603Z,1.23
2022-07-26T15:05:17.960Z,1.23
2022-07-26T15:07:45.749Z,1.13
2022-07-26T15:10:14.254Z,1.20
2022-07-26T15:12:45.019Z,1.10
2022-07-26T15:15:12.116Z,1.05
2022-07-26T15:17:39.208Z,1.23
2022-07-26T15:20:07.323Z,1.00
2022-07-26T15:22:35.068Z,1.17
2022-07-26T15:25:02.113Z,0.90
2022-07-26T15:27:29.212Z,0.90
2022-07-26T15:30:00.976Z,1.50
2022-07-26T15:32:31.106Z,1.25
2022-07-26T15:34:58.141Z,1.15
2022-07-26T15:37:25.145Z,1.20
2022-07-26T15:39:52.138Z,0.90
2022-07-26T15:42:19.615Z,1.23
2022-07-26T15:44:50.859Z,0.82
2022-07-26T15:47:43.568Z,1.23
2022-07-26T15:50:08.334Z,1.23
2022-07-26T15:52:41.883Z,1.35
2022-07-26T15:55:10.511Z,1.10
2022-07-26T15:57:38.042Z,1.60
2022-07-26T16:00:11.618Z,1.00
2022-07-26T16:02:41.081Z,1.33
2022-07-26T16:05:10.072Z,1.33
2022-07-26T16:07:41.202Z,1.20
2022-07-26T16:10:11.098Z,1.00
2022-07-26T16:12:39.915Z,1.40
2022-07-26T16:15:08.780Z,1.08
2022-07-26T16:17:36.183Z,1.00
2022-07-26T16:20:05.268Z,1.77
2022-07-26T16:22:32.994Z,1.30
2022-07-26T16:25:00.013Z,1.08
2022-07-26T16:27:27.220Z,1.55
2022-07-26T16:29:54.282Z,1.33
2022-07-26T16:32:21.563Z,1.13
2022-07-26T16:34:48.756Z,1.48
2022-07-26T16:37:15.862Z,1.40
2022-07-26T16:39:42.860Z,1.02
2022-07-26T16:42:09.935Z,1.10
2022-07-26T16:44:36.987Z,1.23
2022-07-26T16:47:04.643Z,1.10
2022-07-26T16:49:31.891Z,1.45
2022-07-26T16:51:59.097Z,1.00
2022-07-26T16:54:27.401Z,1.60
2022-07-26T16:56:54.462Z,1.10
2022-07-26T16:59:21.460Z,1.20
2022-07-26T17:01:48.523Z,1.67
2022-07-26T17:04:16.595Z,1.05
2022-07-26T17:07:01.729Z,1.35
2022-07-26T17:09:31.925Z,1.05
2022-07-26T17:12:02.857Z,1.00
2022-07-26T17:14:33.153Z,1.10
2022-07-26T17:17:00.325Z,1.10
2022-07-26T17:19:27.747Z,1.00
2022-07-26T17:21:54.820Z,1.10
2022-07-26T17:24:21.888Z,0.93
2022-07-26T17:26:48.923Z,0.85
2022-07-26T17:29:15.954Z,1.08
2022-07-26T17:31:43.064Z,0.85
2022-07-26T17:34:10.733Z,1.05
2022-07-26T17:36:38.340Z,0.90
2022-07-26T17:39:05.693Z,1.30
2022-07-26T17:41:33.562Z,0.85
2022-07-26T17:44:04.840Z,0.90
2022-07-26T17:46:35.058Z,0.90
2022-07-26T17:49:02.279Z,0.90
2022-07-26T17:51:29.425Z,1.10
2022-07-26T17:53:56.429Z,1.15
2022-07-26T17:56:23.410Z,1.17
2022-07-26T17:58:50.555Z,0.90
2022-07-26T18:01:17.678Z,1.00
2022-07-26T18:03:44.698Z,1.50
2022-07-26T18:06:12.435Z,1.20
2022-07-26T18:08:39.621Z,1.00
2022-07-26T18:11:08.010Z,1.10
2022-07-26T18:13:38.466Z,1.20
2022-07-26T18:16:06.439Z,1.88
2022-07-26T18:18:33.677Z,1.33
2022-07-26T18:21:00.748Z,1.20
2022-07-26T18:23:27.835Z,1.30
2022-07-26T18:25:55.020Z,1.00
2022-07-26T18:28:22.052Z,1.48
2022-07-26T18:30:49.075Z,1.20
2022-07-26T18:33:16.460Z,1.38
2022-07-26T18:35:43.998Z,1.30
2022-07-26T18:38:11.054Z,1.70
2022-07-26T18:40:38.103Z,1.40
2022-07-26T18:43:05.219Z,1.40
2022-07-26T18:45:32.400Z,1.70
2022-07-26T18:47:59.873Z,1.15
2022-07-26T18:50:27.552Z,1.73
2022-07-26T18:52:59.350Z,1.20
2022-07-26T18:55:26.717Z,1.70
2022-07-26T18:57:53.792Z,1.75
2022-07-26T19:00:22.956Z,1.52
2022-07-26T19:02:52.012Z,1.42
2022-07-26T19:05:20.635Z,1.40
2022-07-26T19:07:47.667Z,1.35
2022-07-26T19:10:15.211Z,1.65
2022-07-26T19:12:45.218Z,1.77
2022-07-26T19:15:12.394Z,2.05
2022-07-26T19:17:39.448Z,2.47
2022-07-26T19:20:09.082Z,3.05
2022-07-26T19:22:37.627Z,2.70
2022-07-26T19:25:09.007Z,2.80
2022-07-26T19:27:36.747Z,2.45
2022-07-26T19:30:06.844Z,2.05
2022-07-26T19:32:34.043Z,2.10
2022-07-26T19:35:01.614Z,2.10
2022-07-26T19:37:28.690Z,2.28
2022-07-26T19:39:59.036Z,2.65
2022-07-26T19:42:28.137Z,2.45
2022-07-26T19:44:55.198Z,3.17
2022-07-26T19:47:22.356Z,3.72
2022-07-26T19:49:52.261Z,3.10
2022-07-26T19:52:19.228Z,2.95
2022-07-26T19:54:46.333Z,2.80
2022-07-26T19:57:13.536Z,2.70
2022-07-26T19:59:40.493Z,2.78
2022-07-26T20:02:08.008Z,2.65
2022-07-26T20:04:35.108Z,2.10
2022-07-26T20:07:03.644Z,2.05
2022-07-26T20:09:31.312Z,1.67
2022-07-26T20:11:59.414Z,2.45
2022-07-26T20:14:26.646Z,2.03
2022-07-26T20:16:56.827Z,1.75
2022-07-26T20:19:26.712Z,1.80
2022-07-26T20:21:53.745Z,2.15
2022-07-26T20:24:21.048Z,1.90
2022-07-26T20:26:48.218Z,1.80
2022-07-26T20:29:15.562Z,1.58
2022-07-26T20:31:42.788Z,2.28
2022-07-26T20:34:09.836Z,2.00
2022-07-26T20:36:37.005Z,2.05
2022-07-26T20:39:05.430Z,2.50
2022-07-26T20:41:32.594Z,2.33
2022-07-26T20:44:01.236Z,1.90
2022-07-26T20:46:28.373Z,2.08
2022-07-26T20:48:55.581Z,2.28
2022-07-26T20:51:22.868Z,2.22
2022-07-26T20:53:50.145Z,2.00
2022-07-26T20:56:17.362Z,2.00
2022-07-26T20:58:44.343Z,3.15
2022-07-26T21:01:13.821Z,3.60
2022-07-26T21:03:41.102Z,3.15
2022-07-26T21:06:08.518Z,2.40
2022-07-26T21:08:36.230Z,1.83
2022-07-26T21:11:03.398Z,1.90
2022-07-26T21:13:34.000Z,1.65
2022-07-26T21:16:01.013Z,1.95
2022-07-26T21:18:29.888Z,1.80
2022-07-26T21:20:58.943Z,1.63
2022-07-26T21:23:26.223Z,2.13
2022-07-26T21:26:00.309Z,1.77
2022-07-26T21:28:28.722Z,1.75
2022-07-26T21:30:56.012Z,1.85
2022-07-26T21:33:23.046Z,2.15
2022-07-26T21:35:50.318Z,2.42
2022-07-26T21:38:17.386Z,2.60
2022-07-26T21:40:44.575Z,1.98
2022-07-26T21:43:11.526Z,2.33
2022-07-26T21:45:38.604Z,2.50
2022-07-26T21:48:06.028Z,3.15
2022-07-26T21:50:33.019Z,2.40
2022-07-26T21:53:01.145Z,2.10
2022-07-26T21:55:28.607Z,2.33
2022-07-26T21:57:55.583Z,2.33
2022-07-26T22:00:22.595Z,2.40
2022-07-26T22:02:49.699Z,2.33
2022-07-26T22:05:35.128Z,2.40
2022-07-26T22:08:02.751Z,2.13
2022-07-26T22:10:29.927Z,2.22
2022-07-26T22:12:57.009Z,2.20
2022-07-26T22:15:24.409Z,2.47
2022-07-26T22:17:54.840Z,2.28
2022-07-26T22:20:22.712Z,2.30
2022-07-26T22:22:49.680Z,1.95
2022-07-26T22:25:16.693Z,2.42
2022-07-26T22:27:43.627Z,2.13
2022-07-26T22:30:11.533Z,2.30
2022-07-26T22:32:38.537Z,2.13
2022-07-26T22:35:06.173Z,2.22
2022-07-26T22:37:33.087Z,2.30
2022-07-26T22:40:00.271Z,3.15
2022-07-26T22:42:27.270Z,3.08
2022-07-26T22:44:54.207Z,2.85
2022-07-26T22:47:21.203Z,3.22
2022-07-26T22:49:48.138Z,3.22
2022-07-26T22:52:15.158Z,3.60
2022-07-26T22:54:42.125Z,3.10
2022-07-26T22:57:09.390Z,3.28
2022-07-26T22:59:37.099Z,3.50
2022-07-26T23:02:04.583Z,3.33
2022-07-26T23:04:31.545Z,3.38
2022-07-26T23:06:59.179Z,3.17
2022-07-26T23:09:26.958Z,3.42
2022-07-26T23:11:54.074Z,3.05
2022-07-26T23:14:21.061Z,2.95
2022-07-26T23:16:48.065Z,3.35
2022-07-26T23:19:15.707Z,2.70
2022-07-26T23:21:42.774Z,2.60
2022-07-26T23:24:09.878Z,2.97
2022-07-26T23:26:37.164Z,2.85
2022-07-26T23:29:04.730Z,2.58
2022-07-26T23:31:31.720Z,3.05
2022-07-26T23:33:58.769Z,2.78
2022-07-26T23:36:28.154Z,2.30
2022-07-26T23:38:59.840Z,2.75
2022-07-26T23:41:28.255Z,2.42
2022-07-26T23:43:56.524Z,2.47
2022-07-26T23:46:24.730Z,2.65
2022-07-26T23:48:52.417Z,2.08
2022-07-26T23:51:20.347Z,2.50
2022-07-26T23:53:47.887Z,2.78
2022-07-26T23:56:15.807Z,2.30
2022-07-26T23:58:42.861Z,2.75
